UNTT/TOF METAR and TAF weather

Enter ICAO airport designator
Station Type Date Time Source
UNTT METAR 2019/04/18 14:00 UTC NOAA

UNTT 181400Z 24007MPS 3400 -SHSN DRSN SCT021CB BKN045 M09/M11 Q1013 R21/490237 NOSIG RMK QFE745


Station Type Date Time Source
UNTT Decoded METAR 2019/04/18 14:00 UTC NOAA

Station name not available
Apr 18, 2019 - 10:00 AM EDT / 2019.04.18 1400 UTC
Wind: from the WSW (240 degrees) at 16 MPH (14 KT):0
Visibility: 2 mile(s):0
Sky conditions: mostly cloudy
Weather: light snow showers; low drifting snow; Cumulonimbus clouds observed
Temperature: 15 F (-9 C)
Windchill: 0 F (-18 C):1
Dew Point: 12 F (-11 C)
Relative Humidity: 85%
Pressure (altimeter): 29.91 in. Hg (1013 hPa)
ob: UNTT 181400Z 24007MPS 3400 -SHSN DRSN SCT021CB BKN045 M09/M11 Q1013 R21/490237 NOSIG RMK QFE745
cycle: 14

Station Type Date Time Source
UNTT TAF UTC NOAA

Error!

Example: see airport list